createdAt,value
2019-05-25T00:01:24.104Z,11.64
2019-05-25T00:03:54.635Z,11.61
2019-05-25T00:06:25.136Z,11.67
2019-05-25T00:08:55.698Z,11.65
2019-05-25T00:11:26.227Z,11.63
2019-05-25T00:13:56.717Z,11.69
2019-05-25T00:16:27.236Z,11.66
2019-05-25T00:18:57.706Z,11.66
2019-05-25T00:21:28.242Z,11.74
2019-05-25T00:24:11.197Z,11.62
2019-05-25T00:26:31.022Z,11.70
2019-05-25T00:29:01.430Z,11.67
2019-05-25T00:31:31.997Z,11.67
2019-05-25T00:34:02.472Z,11.63
2019-05-25T00:36:33.036Z,11.62
2019-05-25T00:39:03.619Z,11.58
2019-05-25T00:41:34.147Z,11.58
2019-05-25T00:44:04.747Z,11.49
2019-05-25T00:46:35.315Z,11.41
2019-05-25T00:49:05.785Z,11.44
2019-05-25T00:51:36.365Z,11.52
2019-05-25T00:54:07.658Z,11.50
2019-05-25T00:56:38.195Z,11.37
2019-05-25T00:59:08.696Z,11.42
2019-05-25T01:01:39.222Z,11.45
2019-05-25T01:04:09.722Z,11.38
2019-05-25T01:06:40.213Z,11.34
2019-05-25T01:09:10.884Z,11.41
2019-05-25T01:11:41.416Z,11.41
2019-05-25T01:14:11.907Z,11.40
2019-05-25T01:16:42.444Z,11.42
2019-05-25T01:19:12.966Z,11.39
2019-05-25T01:21:43.470Z,11.43
2019-05-25T01:24:14.311Z,11.46
2019-05-25T01:26:44.944Z,11.42
2019-05-25T01:29:15.523Z,11.43
2019-05-25T01:31:46.598Z,11.46
2019-05-25T01:34:17.118Z,11.48
2019-05-25T01:36:47.599Z,11.43
2019-05-25T01:39:18.171Z,11.57
2019-05-25T01:41:48.631Z,11.55
2019-05-25T01:44:19.212Z,11.59
2019-05-25T01:46:49.719Z,11.43
2019-05-25T01:49:20.229Z,11.41
2019-05-25T01:51:50.733Z,11.38
2019-05-25T01:54:21.295Z,11.42
2019-05-25T01:56:51.761Z,11.51
2019-05-25T01:59:22.362Z,11.45
2019-05-25T02:01:52.830Z,11.41
2019-05-25T02:04:23.165Z,11.56
2019-05-25T02:06:53.671Z,11.59
2019-05-25T02:09:24.206Z,11.52
2019-05-25T02:11:54.723Z,11.59
2019-05-25T02:14:25.279Z,11.60
2019-05-25T02:16:55.773Z,11.52
2019-05-25T02:19:26.243Z,11.59
2019-05-25T02:21:56.763Z,11.57
2019-05-25T02:24:27.205Z,11.58
2019-05-25T02:26:57.688Z,11.56
2019-05-25T02:29:28.258Z,11.46
2019-05-25T02:31:58.773Z,11.43
2019-05-25T02:34:29.282Z,11.45
2019-05-25T02:36:59.814Z,11.51
2019-05-25T02:39:30.292Z,11.49
2019-05-25T02:42:00.850Z,11.42
2019-05-25T02:44:31.334Z,11.39
2019-05-25T02:47:01.876Z,11.41
2019-05-25T02:49:32.409Z,11.46
2019-05-25T02:52:02.933Z,11.41
2019-05-25T02:54:33.432Z,11.38
2019-05-25T02:57:04.039Z,11.45
2019-05-25T02:59:34.556Z,11.45
2019-05-25T03:02:05.095Z,11.46
2019-05-25T03:04:35.567Z,11.51
2019-05-25T03:07:06.655Z,11.43
2019-05-25T03:09:39.095Z,11.43
2019-05-25T03:12:10.156Z,11.43
2019-05-25T03:14:41.327Z,11.36
2019-05-25T03:17:12.348Z,11.39
2019-05-25T03:19:43.041Z,11.41
2019-05-25T03:22:13.569Z,11.36
2019-05-25T03:24:44.134Z,11.38
2019-05-25T03:27:14.626Z,11.39
2019-05-25T03:29:45.144Z,11.37
2019-05-25T03:32:15.693Z,11.38
2019-05-25T03:34:46.260Z,11.42
2019-05-25T03:37:16.793Z,11.36
2019-05-25T03:39:47.329Z,11.40
2019-05-25T03:42:17.822Z,11.46
2019-05-25T03:44:48.412Z,11.45
2019-05-25T03:47:18.888Z,11.51
2019-05-25T03:49:49.436Z,11.43
2019-05-25T03:52:19.929Z,11.44
2019-05-25T03:54:50.460Z,11.52
2019-05-25T03:57:20.941Z,11.48
2019-05-25T03:59:51.458Z,11.48
2019-05-25T04:02:21.926Z,11.52
2019-05-25T04:04:52.454Z,11.56
2019-05-25T04:07:22.940Z,11.55
2019-05-25T04:09:53.436Z,11.62
2019-05-25T04:12:23.963Z,11.63
2019-05-25T04:14:54.405Z,11.65
2019-05-25T04:17:24.918Z,11.62
2019-05-25T04:19:55.431Z,11.66
2019-05-25T04:22:25.941Z,11.75
2019-05-25T04:24:56.411Z,11.77
2019-05-25T04:27:26.929Z,11.69
2019-05-25T04:29:57.449Z,11.66
2019-05-25T04:32:27.975Z,11.71
2019-05-25T04:34:58.442Z,11.68
2019-05-25T04:37:28.926Z,11.71
2019-05-25T04:39:59.419Z,11.72
2019-05-25T04:42:29.885Z,11.70
2019-05-25T04:45:00.407Z,11.57
2019-05-25T04:47:30.896Z,11.55
2019-05-25T04:50:01.366Z,11.59
2019-05-25T04:52:31.909Z,11.63
2019-05-25T04:55:02.402Z,11.66
2019-05-25T04:57:32.873Z,11.65
2019-05-25T05:00:03.402Z,11.75
2019-05-25T05:02:33.940Z,11.76
2019-05-25T05:05:05.533Z,11.77
2019-05-25T05:07:36.082Z,11.79
2019-05-25T05:10:07.488Z,11.68
2019-05-25T05:12:37.971Z,11.75
2019-05-25T05:15:09.335Z,11.84
2019-05-25T05:17:39.834Z,11.80
2019-05-25T05:20:11.031Z,11.84
2019-05-25T05:22:41.569Z,11.90
2019-05-25T05:25:12.573Z,11.97
2019-05-25T05:27:43.093Z,12.05
2019-05-25T05:30:13.703Z,12.13
2019-05-25T05:32:44.170Z,12.04
2019-05-25T05:35:14.652Z,12.00
2019-05-25T05:37:46.369Z,11.86
2019-05-25T05:40:16.896Z,11.84
2019-05-25T05:42:49.892Z,11.96
2019-05-25T05:45:20.398Z,12.05
2019-05-25T05:47:52.558Z,12.02
2019-05-25T05:50:23.443Z,12.06
2019-05-25T05:52:56.150Z,12.06
2019-05-25T05:55:33.080Z,12.24
2019-05-25T05:58:03.988Z,12.20
2019-05-25T06:00:34.510Z,12.12
2019-05-25T06:03:05.071Z,12.19
2019-05-25T06:05:35.570Z,12.18
2019-05-25T06:08:36.969Z,12.19
2019-05-25T06:11:07.484Z,12.13
2019-05-25T06:13:37.956Z,12.27
2019-05-25T06:16:08.457Z,12.31
2019-05-25T06:18:39.024Z,12.29
2019-05-25T06:21:09.515Z,12.34
2019-05-25T06:23:39.970Z,12.32
2019-05-25T06:26:10.495Z,12.44
2019-05-25T06:28:40.974Z,12.40
2019-05-25T06:31:11.429Z,12.41
2019-05-25T06:33:41.850Z,12.40
2019-05-25T06:36:12.365Z,12.41
2019-05-25T06:38:42.825Z,12.35
2019-05-25T06:41:13.355Z,12.47
2019-05-25T06:43:43.862Z,12.49
2019-05-25T06:46:14.364Z,12.37
2019-05-25T06:48:44.882Z,12.21
2019-05-25T06:51:15.373Z,12.28
2019-05-25T06:53:47.606Z,12.32
2019-05-25T06:56:18.162Z,12.28
2019-05-25T06:58:48.676Z,12.25
2019-05-25T07:01:19.201Z,12.35
2019-05-25T07:03:49.695Z,12.40
2019-05-25T07:06:20.248Z,12.34
2019-05-25T07:08:50.727Z,12.60
2019-05-25T07:11:21.232Z,12.49
2019-05-25T07:13:51.796Z,12.56
2019-05-25T07:16:22.324Z,12.47
2019-05-25T07:18:52.926Z,12.40
2019-05-25T07:21:23.546Z,12.42
2019-05-25T07:23:54.175Z,12.53
2019-05-25T07:26:24.801Z,12.78
2019-05-25T07:28:55.254Z,12.71
2019-05-25T07:31:25.792Z,12.95
2019-05-25T07:33:56.289Z,13.04
2019-05-25T07:36:26.751Z,13.05
2019-05-25T07:38:57.246Z,13.22
2019-05-25T07:41:27.803Z,13.26
2019-05-25T07:43:58.314Z,13.37
2019-05-25T07:46:28.861Z,13.52
2019-05-25T07:48:59.372Z,13.58
2019-05-25T07:51:30.013Z,13.66
2019-05-25T07:54:00.555Z,13.45
2019-05-25T07:56:31.076Z,13.36
2019-05-25T07:59:01.642Z,13.13
2019-05-25T08:01:32.114Z,13.01
2019-05-25T08:04:02.620Z,12.92
2019-05-25T08:06:33.095Z,13.07
2019-05-25T08:09:04.083Z,13.13
2019-05-25T08:11:34.572Z,13.16
2019-05-25T08:14:05.017Z,13.26
2019-05-25T08:16:35.481Z,13.18
2019-05-25T08:19:05.971Z,13.27
2019-05-25T08:21:36.514Z,13.24
2019-05-25T08:24:07.001Z,13.46
2019-05-25T08:26:37.490Z,13.42
2019-05-25T08:29:07.969Z,13.42
2019-05-25T08:31:38.472Z,13.65
2019-05-25T08:34:08.950Z,13.64
2019-05-25T08:36:39.439Z,13.44
2019-05-25T08:39:09.908Z,13.61
2019-05-25T08:41:40.508Z,13.45
2019-05-25T08:44:10.989Z,13.70
2019-05-25T08:46:41.451Z,13.58
2019-05-25T08:49:11.955Z,13.48
2019-05-25T08:51:42.428Z,13.43
2019-05-25T08:54:12.911Z,13.55
2019-05-25T08:56:43.443Z,13.92
2019-05-25T08:59:13.951Z,14.06
2019-05-25T09:02:03.646Z,14.05
2019-05-25T09:04:34.096Z,13.90
2019-05-25T09:07:04.614Z,13.81
2019-05-25T09:09:35.240Z,13.91
2019-05-25T09:12:05.697Z,14.02
2019-05-25T09:14:37.308Z,13.96
2019-05-25T09:17:07.860Z,13.74
2019-05-25T09:19:38.384Z,13.60
2019-05-25T09:22:08.855Z,13.69
2019-05-25T09:24:39.392Z,13.46
2019-05-25T09:27:09.821Z,13.33
2019-05-25T09:29:40.411Z,13.30
2019-05-25T09:32:10.947Z,13.29
2019-05-25T09:34:41.531Z,13.17
2019-05-25T09:37:12.062Z,13.08
2019-05-25T09:39:42.691Z,13.04
2019-05-25T09:42:13.187Z,13.08
2019-05-25T09:44:43.691Z,13.25
2019-05-25T09:47:14.195Z,13.34
2019-05-25T09:49:44.714Z,13.46
2019-05-25T09:52:15.216Z,13.70
2019-05-25T09:54:45.718Z,13.97
2019-05-25T09:57:17.287Z,13.96
2019-05-25T09:59:47.786Z,13.92
2019-05-25T10:02:18.322Z,14.15
2019-05-25T10:04:48.857Z,13.90
2019-05-25T10:07:19.339Z,14.00
2019-05-25T10:09:49.867Z,14.25
2019-05-25T10:12:21.288Z,14.16
2019-05-25T10:14:51.752Z,14.46
2019-05-25T10:17:22.306Z,14.87
2019-05-25T10:19:52.837Z,14.97
2019-05-25T10:22:23.294Z,14.74
2019-05-25T10:24:54.166Z,14.74
2019-05-25T10:27:24.988Z,14.69
2019-05-25T10:29:55.429Z,14.62
2019-05-25T10:32:26.062Z,14.44
2019-05-25T10:34:57.008Z,14.57
2019-05-25T10:37:27.503Z,14.54
2019-05-25T10:39:58.034Z,14.57
2019-05-25T10:42:28.822Z,14.71
2019-05-25T10:44:59.408Z,14.51
2019-05-25T10:47:29.912Z,14.12
2019-05-25T10:50:00.446Z,14.09
2019-05-25T10:52:30.960Z,14.39
2019-05-25T10:55:01.583Z,14.61
2019-05-25T10:57:32.147Z,14.66
2019-05-25T11:00:02.644Z,14.46
2019-05-25T11:02:33.205Z,14.81
2019-05-25T11:05:03.870Z,14.81
2019-05-25T11:07:35.224Z,14.60
2019-05-25T11:10:06.279Z,14.74
2019-05-25T11:12:36.869Z,14.49
2019-05-25T11:15:08.299Z,14.26
2019-05-25T11:17:38.885Z,14.27
2019-05-25T11:20:10.589Z,14.16
2019-05-25T11:22:41.065Z,14.34
2019-05-25T11:25:12.341Z,14.68
2019-05-25T11:27:42.939Z,14.83
2019-05-25T11:30:14.318Z,15.03
2019-05-25T11:32:44.909Z,15.20
2019-05-25T11:35:17.471Z,15.28
2019-05-25T11:37:48.634Z,15.30
2019-05-25T11:40:19.923Z,15.66
2019-05-25T11:42:50.475Z,15.25
2019-05-25T11:45:21.484Z,15.11
2019-05-25T11:47:52.104Z,15.41
2019-05-25T11:50:23.005Z,15.13
2019-05-25T11:52:53.578Z,14.96
2019-05-25T11:55:24.107Z,14.60
2019-05-25T11:57:54.655Z,14.19
2019-05-25T12:00:27.245Z,14.44
2019-05-25T12:02:57.855Z,14.39
2019-05-25T12:05:28.532Z,14.61
2019-05-25T12:07:59.067Z,15.07
2019-05-25T12:10:29.582Z,14.80
2019-05-25T12:13:00.086Z,15.56
2019-05-25T12:15:30.688Z,15.63
2019-05-25T12:18:01.208Z,15.87
2019-05-25T12:20:31.736Z,15.80
2019-05-25T12:23:01.371Z,16.32
2019-05-25T12:25:30.841Z,16.50
2019-05-25T12:28:00.436Z,16.38
2019-05-25T12:30:40.293Z,15.78
2019-05-25T12:33:01.108Z,15.32
2019-05-25T12:35:30.631Z,15.08
2019-05-25T12:38:00.152Z,15.19
2019-05-25T12:40:29.648Z,15.00
2019-05-25T12:42:59.160Z,14.55
2019-05-25T12:45:28.696Z,14.49
2019-05-25T12:47:58.189Z,14.56
2019-05-25T12:50:27.641Z,15.12
2019-05-25T12:52:57.116Z,15.36
2019-05-25T12:55:26.587Z,15.22
2019-05-25T12:57:56.124Z,15.18
2019-05-25T13:00:25.800Z,15.19
2019-05-25T13:02:55.684Z,15.20
2019-05-25T13:05:34.064Z,15.33
2019-05-25T13:07:56.458Z,15.51
2019-05-25T13:10:25.943Z,15.68
2019-05-25T13:12:57.696Z,15.24
2019-05-25T13:15:26.693Z,15.44
2019-05-25T13:17:56.136Z,15.84
2019-05-25T13:20:25.614Z,15.91
2019-05-25T13:22:55.186Z,15.48
2019-05-25T13:25:24.680Z,15.21
2019-05-25T13:27:54.149Z,14.68
2019-05-25T13:30:23.648Z,14.67
2019-05-25T13:32:53.121Z,14.55
2019-05-25T13:35:22.643Z,14.39
2019-05-25T13:37:52.109Z,14.36
2019-05-25T13:40:21.590Z,14.46
2019-05-25T13:42:51.065Z,14.16
2019-05-25T13:45:20.655Z,14.24
2019-05-25T13:47:50.145Z,14.20
2019-05-25T13:50:19.713Z,14.30
2019-05-25T13:52:49.261Z,14.47
2019-05-25T13:55:18.756Z,14.63
2019-05-25T13:57:48.466Z,15.14
2019-05-25T14:00:18.396Z,15.22
2019-05-25T14:02:48.561Z,14.97
2019-05-25T14:05:18.287Z,15.03
2019-05-25T14:07:48.038Z,14.66
2019-05-25T14:10:17.548Z,14.79
2019-05-25T14:12:47.043Z,14.79
2019-05-25T14:15:16.959Z,15.85
2019-05-25T14:17:46.412Z,16.37
2019-05-25T14:20:17.634Z,16.04
2019-05-25T14:22:47.301Z,16.03
2019-05-25T14:25:17.026Z,15.95
2019-05-25T14:27:46.582Z,15.35
2019-05-25T14:30:16.454Z,15.27
2019-05-25T14:32:46.872Z,14.57
2019-05-25T14:35:16.855Z,14.47
2019-05-25T14:37:46.458Z,14.41
2019-05-25T14:40:16.436Z,14.38
2019-05-25T14:42:45.981Z,14.44
2019-05-25T14:45:16.284Z,14.44
2019-05-25T14:47:45.902Z,14.36
2019-05-25T14:50:15.629Z,14.46
2019-05-25T14:52:45.114Z,14.53
2019-05-25T14:55:15.588Z,14.49
2019-05-25T14:57:45.086Z,14.60
2019-05-25T15:00:15.964Z,14.62
2019-05-25T15:02:46.306Z,14.51
2019-05-25T15:05:15.889Z,14.21
2019-05-25T15:07:45.404Z,14.26
2019-05-25T15:10:16.225Z,14.00
2019-05-25T15:12:45.706Z,14.00
2019-05-25T15:15:16.574Z,14.24
2019-05-25T15:17:46.304Z,14.41
2019-05-25T15:20:15.880Z,14.39
2019-05-25T15:22:46.990Z,14.46
2019-05-25T15:25:16.683Z,14.56
2019-05-25T15:27:46.182Z,14.45
2019-05-25T15:30:15.903Z,14.50
2019-05-25T15:32:45.379Z,14.35
2019-05-25T15:35:14.950Z,14.17
2019-05-25T15:40:33.036Z,14.41
2019-05-25T15:43:02.515Z,14.12
2019-05-25T15:45:31.983Z,14.25
2019-05-25T15:48:01.450Z,14.11
2019-05-25T15:50:30.958Z,13.87
2019-05-25T15:53:00.482Z,13.71
2019-05-25T15:55:30.119Z,13.94
2019-05-25T15:57:59.577Z,13.79
2019-05-25T16:00:49.527Z,13.82
2019-05-25T16:03:20.095Z,13.76
2019-05-25T16:05:50.019Z,13.91
2019-05-25T16:08:20.442Z,13.95
2019-05-25T16:10:51.252Z,13.87
2019-05-25T16:13:21.361Z,13.78
2019-05-25T16:15:50.948Z,13.62
2019-05-25T16:18:21.038Z,13.72
2019-05-25T16:20:50.547Z,13.61
2019-05-25T16:23:20.071Z,13.48
2019-05-25T16:25:49.633Z,13.41
2019-05-25T16:28:20.046Z,13.43
2019-05-25T16:30:49.514Z,13.51
2019-05-25T16:33:18.837Z,13.36
2019-05-25T16:35:48.333Z,13.34
2019-05-25T16:38:17.983Z,13.31
2019-05-25T16:40:47.700Z,13.23
2019-05-25T16:43:17.164Z,13.23
2019-05-25T16:45:46.704Z,13.33
2019-05-25T16:48:30.823Z,13.19
2019-05-25T16:51:00.384Z,13.11
2019-05-25T16:53:29.832Z,13.26
2019-05-25T16:55:59.421Z,13.26
2019-05-25T16:58:28.944Z,13.30
2019-05-25T17:00:58.434Z,13.42
2019-05-25T17:03:29.179Z,13.29
2019-05-25T17:05:58.875Z,13.39
2019-05-25T17:08:28.456Z,13.51
2019-05-25T17:10:58.055Z,13.54
2019-05-25T17:13:27.603Z,13.33
2019-05-25T17:15:57.179Z,13.16
2019-05-25T17:18:26.766Z,13.01
2019-05-25T17:20:56.238Z,13.09
2019-05-25T17:23:25.724Z,12.93
2019-05-25T17:25:55.414Z,12.87
2019-05-25T17:28:24.859Z,12.90
2019-05-25T17:30:54.320Z,12.97
2019-05-25T17:33:23.847Z,12.93
2019-05-25T17:35:53.375Z,12.89
2019-05-25T17:38:22.855Z,12.81
2019-05-25T17:40:52.337Z,12.79
2019-05-25T17:43:21.781Z,12.64
2019-05-25T17:45:51.255Z,12.67
2019-05-25T17:48:20.804Z,12.75
2019-05-25T17:50:50.359Z,12.80
2019-05-25T17:53:19.845Z,12.72
2019-05-25T17:55:49.442Z,12.73
2019-05-25T17:58:19.020Z,12.74
2019-05-25T18:00:50.479Z,12.73
2019-05-25T18:03:20.333Z,12.84
2019-05-25T18:05:49.898Z,12.86
2019-05-25T18:08:19.464Z,12.72
2019-05-25T18:10:53.230Z,12.69
2019-05-25T18:13:20.210Z,12.70
2019-05-25T18:15:49.765Z,12.67
2019-05-25T18:18:19.328Z,12.60
2019-05-25T18:20:48.995Z,12.59
2019-05-25T18:23:19.294Z,12.66
2019-05-25T18:25:49.034Z,12.59
2019-05-25T18:28:18.586Z,12.52
2019-05-25T18:30:48.090Z,12.53
2019-05-25T18:33:17.674Z,12.46
2019-05-25T18:35:47.271Z,12.44
2019-05-25T18:38:16.971Z,12.46
2019-05-25T18:40:46.473Z,12.42
2019-05-25T18:43:16.012Z,12.41
2019-05-25T18:45:45.579Z,12.38
2019-05-25T18:48:15.085Z,12.19
2019-05-25T18:50:44.986Z,12.22
2019-05-25T18:53:14.591Z,12.26
2019-05-25T18:55:44.604Z,12.16
2019-05-25T18:58:14.135Z,12.08
2019-05-25T19:00:43.635Z,12.19
2019-05-25T19:03:13.227Z,12.14
2019-05-25T19:05:42.746Z,12.10
2019-05-25T19:08:12.271Z,12.12
2019-05-25T19:10:41.875Z,12.05
2019-05-25T19:13:11.357Z,12.06
2019-05-25T19:15:40.853Z,12.06
2019-05-25T19:18:10.370Z,12.02
2019-05-25T19:20:39.877Z,11.98
2019-05-25T19:23:09.351Z,12.05
2019-05-25T19:25:38.861Z,12.04
2019-05-25T19:28:08.372Z,11.92
2019-05-25T19:30:37.887Z,11.90
2019-05-25T19:33:07.507Z,11.86
2019-05-25T19:35:36.992Z,11.86
2019-05-25T19:38:06.526Z,11.89
2019-05-25T19:40:36.050Z,11.96
2019-05-25T19:43:05.567Z,11.91
2019-05-25T19:45:35.039Z,11.86
2019-05-25T19:48:04.628Z,11.80
2019-05-25T19:50:34.057Z,11.82
2019-05-25T19:53:03.562Z,11.87
2019-05-25T19:55:33.116Z,11.86
2019-05-25T19:58:02.666Z,11.86
2019-05-25T20:00:32.996Z,11.84
2019-05-25T20:03:02.526Z,11.75
2019-05-25T20:05:32.056Z,11.74
2019-05-25T20:08:01.555Z,11.70
2019-05-25T20:10:31.097Z,11.70
2019-05-25T20:13:00.621Z,11.73
2019-05-25T20:15:30.103Z,11.82
2019-05-25T20:17:59.650Z,11.75
2019-05-25T20:20:29.882Z,11.72
2019-05-25T20:22:59.455Z,11.72
2019-05-25T20:25:29.035Z,11.73
2019-05-25T20:27:58.595Z,11.68
2019-05-25T20:30:28.216Z,11.62
2019-05-25T20:33:02.831Z,11.59
2019-05-25T20:35:33.760Z,11.59
2019-05-25T20:38:03.578Z,11.54
2019-05-25T20:40:33.124Z,11.44
2019-05-25T20:43:02.713Z,11.44
2019-05-25T20:45:32.341Z,11.40
2019-05-25T20:48:01.830Z,11.38
2019-05-25T20:50:31.728Z,11.33
2019-05-25T20:53:01.705Z,11.31
2019-05-25T20:55:31.226Z,11.26
2019-05-25T20:58:00.733Z,11.20
2019-05-25T21:00:30.208Z,11.22
2019-05-25T21:03:06.028Z,11.12
2019-05-25T21:05:30.988Z,11.07
2019-05-25T21:08:00.560Z,10.98
2019-05-25T21:10:30.093Z,10.96
2019-05-25T21:12:59.671Z,11.01
2019-05-25T21:15:29.209Z,10.89
2019-05-25T21:17:58.823Z,10.82
2019-05-25T21:20:28.624Z,10.76
2019-05-25T21:22:58.046Z,10.74
2019-05-25T21:25:27.555Z,10.78
2019-05-25T21:27:57.005Z,10.79
2019-05-25T21:30:26.509Z,10.86
2019-05-25T21:32:56.133Z,10.84
2019-05-25T21:35:26.060Z,10.86
2019-05-25T21:37:55.831Z,10.90
2019-05-25T21:40:25.285Z,10.88
2019-05-25T21:42:55.295Z,10.86
2019-05-25T21:45:24.954Z,10.81
2019-05-25T21:47:56.233Z,10.79
2019-05-25T21:50:25.839Z,10.76
2019-05-25T21:52:55.134Z,10.76
2019-05-25T21:55:24.671Z,10.74
2019-05-25T21:57:54.192Z,10.71
2019-05-25T22:00:26.380Z,10.71
2019-05-25T22:02:55.914Z,10.69
2019-05-25T22:05:25.572Z,10.61
2019-05-25T22:07:55.069Z,10.65
2019-05-25T22:10:24.639Z,10.55
2019-05-25T22:12:54.152Z,10.61
2019-05-25T22:15:23.621Z,10.58
2019-05-25T22:17:53.218Z,10.58
2019-05-25T22:20:22.681Z,10.56
2019-05-25T22:22:52.143Z,10.51
2019-05-25T22:25:21.620Z,10.45
2019-05-25T22:27:51.160Z,10.46
2019-05-25T22:30:21.306Z,10.43
2019-05-25T22:32:50.809Z,10.56
2019-05-25T22:35:20.289Z,10.47
2019-05-25T22:37:49.747Z,10.43
2019-05-25T22:40:19.294Z,10.45
2019-05-25T22:42:48.764Z,10.42
2019-05-25T22:45:19.058Z,10.38
2019-05-25T22:47:48.569Z,10.36
2019-05-25T22:50:18.037Z,10.40
2019-05-25T22:52:47.473Z,10.39
2019-05-25T22:55:17.057Z,10.35
2019-05-25T22:57:46.592Z,10.42
2019-05-25T23:00:16.486Z,10.39
2019-05-25T23:02:45.939Z,10.37
2019-05-25T23:05:15.431Z,10.33
2019-05-25T23:07:44.889Z,10.30
2019-05-25T23:10:14.728Z,10.27
2019-05-25T23:12:44.187Z,10.19
2019-05-25T23:15:13.757Z,10.18
2019-05-25T23:17:43.250Z,10.16
2019-05-25T23:20:13.856Z,10.16
2019-05-25T23:22:43.297Z,10.19
2019-05-25T23:25:12.770Z,10.13
2019-05-25T23:27:42.258Z,10.09
2019-05-25T23:30:12.002Z,10.07
2019-05-25T23:32:41.509Z,10.11
2019-05-25T23:35:11.062Z,10.05
2019-05-25T23:37:40.515Z,10.01
2019-05-25T23:40:10.109Z,9.95
2019-05-25T23:42:39.570Z,9.92
2019-05-25T23:45:09.345Z,9.87
2019-05-25T23:47:38.843Z,9.88
2019-05-25T23:50:08.788Z,9.88
2019-05-25T23:52:38.237Z,9.93
2019-05-25T23:55:08.091Z,9.88
2019-05-25T23:57:37.544Z,9.88
